PWSweather.com
Personal Weather Stations
Station Observations
KILMORRI1
Goose Lake, Morris, IL 60450

Goose LakeMorris, IL 60450

Lat: 41.34, Lon: -88.3

Elevation: 523

Station Type:

Latest ConditionsUpdated 2:50:05 PM CDT Friday, Aug 18, 2017
Currently Today's Max Today's Min Today's Average
Temperature 79.6°F26.4°C 79.6°F26.4°C 63.8°F17.7°C 70.8°F21.6°C
Dew Point 67.7°F19.8°C 68.6°F20.3°C 62.3°F16.8°C 65.1°F18.4°C
Winds 4.6 mph SW7.4 kmh SW 8.1 mph NW13.0 kmh NW - 4.0 mph 6.4 kmh
Wind Gusts 8.1 mph13.0 kmh 12.7 mph20.4 kmh - -
Humidity 67% 95% 66% 83%
Pressure 29.83 in1010.2 mb 29.86 in1011.2 mb 29.75 in1007.5 mb -
Hour Temp Dew Point Humidity Winds Wind Gusts Pressure Precip Precip Rate Daily Precip Total
02:50 PM 79.6°F26.4°C 67.7°F19.8°C 67% 4.6 mph SW7.4 kmh SW 8.1 mph13.0 kmh 29.83 in1010.2 mb - 0.00 in0.0 mm 0.00 in0.0 mm
02:40 PM 79.5°F26.4°C 68.0°F20.0°C 68% 4.6 mph SW7.4 kmh SW 8.1 mph13.0 kmh 29.83 in1010.2 mb - 0.00 in0.0 mm 0.00 in0.0 mm
02:30 PM 79.2°F26.2°C 68.6°F20.3°C 70% 3.5 mph SW5.6 kmh SW 5.8 mph9.3 kmh 29.84 in1010.5 mb - 0.00 in0.0 mm 0.00 in0.0 mm
02:20 PM 79.3°F26.3°C 66.9°F19.4°C 66% 6.9 mph WSW11.1 kmh WSW 11.5 mph18.5 kmh 29.84 in1010.5 mb - 0.00 in0.0 mm 0.00 in0.0 mm
02:10 PM 79.3°F26.3°C 67.8°F19.9°C 68% 4.6 mph SW7.4 kmh SW 8.1 mph13.0 kmh 29.83 in1010.2 mb - 0.00 in0.0 mm 0.00 in0.0 mm
02:00 PM 77.5°F25.3°C 66.9°F19.4°C 70% 4.6 mph SW7.4 kmh SW 6.9 mph11.1 kmh 29.83 in1010.2 mb - 0.00 in0.0 mm 0.00 in0.0 mm
01:50 PM 78.6°F25.9°C 67.2°F19.6°C 68% 4.6 mph W7.4 kmh W 6.9 mph11.1 kmh 29.84 in1010.5 mb - 0.00 in0.0 mm 0.00 in0.0 mm
01:40 PM 78.1°F25.6°C 67.1°F19.5°C 69% 5.8 mph NW9.3 kmh NW 6.9 mph11.1 kmh 29.85 in1010.8 mb - 0.00 in0.0 mm 0.00 in0.0 mm
01:30 PM 77.1°F25.1°C 65.3°F18.5°C 67% 3.5 mph W5.6 kmh W 6.9 mph11.1 kmh 29.84 in1010.5 mb - 0.00 in0.0 mm 0.00 in0.0 mm
01:20 PM 77.6°F25.3°C 67.1°F19.5°C 70% 3.5 mph W5.6 kmh W 3.5 mph5.6 kmh 29.85 in1010.8 mb - 0.00 in0.0 mm 0.00 in0.0 mm
01:10 PM 76.0°F24.4°C 65.9°F18.8°C 71% 5.8 mph W9.3 kmh W 8.1 mph13.0 kmh 29.85 in1010.8 mb - 0.00 in0.0 mm 0.00 in0.0 mm
01:00 PM 78.0°F25.6°C 66.1°F18.9°C 67% 5.8 mph W9.3 kmh W 11.5 mph18.5 kmh 29.85 in1010.8 mb - 0.00 in0.0 mm 0.00 in0.0 mm
12:50 PM 76.7°F24.8°C 65.8°F18.8°C 69% 5.8 mph W9.3 kmh W 9.2 mph14.8 kmh 29.84 in1010.5 mb - 0.00 in0.0 mm 0.00 in0.0 mm
12:40 PM 77.0°F25.0°C 65.6°F18.7°C 68% 3.5 mph WSW5.6 kmh WSW 9.2 mph14.8 kmh 29.85 in1010.8 mb - 0.00 in0.0 mm 0.00 in0.0 mm
12:30 PM 77.0°F25.0°C 66.9°F19.4°C 71% 4.6 mph W7.4 kmh W 6.9 mph11.1 kmh 29.85 in1010.8 mb - 0.00 in0.0 mm 0.00 in0.0 mm
12:20 PM 77.0°F25.0°C 66.9°F19.4°C 71% 2.3 mph W3.7 kmh W 3.5 mph5.6 kmh 29.85 in1010.8 mb - 0.00 in0.0 mm 0.00 in0.0 mm
12:10 PM 75.7°F24.3°C 65.6°F18.7°C 71% 8.1 mph W13.0 kmh W 11.5 mph18.5 kmh 29.85 in1010.8 mb - 0.00 in0.0 mm 0.00 in0.0 mm
12:00 PM 75.6°F24.2°C 65.5°F18.6°C 71% 4.6 mph WNW7.4 kmh WNW 6.9 mph11.1 kmh 29.86 in1011.2 mb - 0.00 in0.0 mm 0.00 in0.0 mm
11:50 AM 75.8°F24.3°C 66.9°F19.4°C 74% 3.5 mph WNW5.6 kmh WNW 6.9 mph11.1 kmh 29.86 in1011.2 mb - 0.00 in0.0 mm 0.00 in0.0 mm
11:40 AM 75.9°F24.4°C 65.0°F18.3°C 69% 5.8 mph NW9.3 kmh NW 9.2 mph14.8 kmh 29.86 in1011.2 mb - 0.00 in0.0 mm 0.00 in0.0 mm
11:30 AM 76.2°F24.6°C 66.1°F18.9°C 71% 8.1 mph WSW13.0 kmh WSW 10.4 mph16.7 kmh 29.86 in1011.2 mb - 0.00 in0.0 mm 0.00 in0.0 mm
11:20 AM 76.3°F24.6°C 65.4°F18.6°C 69% 4.6 mph WNW7.4 kmh WNW 11.5 mph18.5 kmh 29.86 in1011.2 mb - 0.00 in0.0 mm 0.00 in0.0 mm
11:10 AM 76.4°F24.7°C 66.7°F19.3°C 72% 8.1 mph NW13.0 kmh NW 11.5 mph18.5 kmh 29.86 in1011.2 mb - 0.00 in0.0 mm 0.00 in0.0 mm
11:00 AM 76.0°F24.4°C 67.5°F19.7°C 75% 5.8 mph NW9.3 kmh NW 11.5 mph18.5 kmh 29.85 in1010.8 mb - 0.00 in0.0 mm 0.00 in0.0 mm
10:50 AM 74.9°F23.8°C 65.6°F18.7°C 73% 4.6 mph WNW7.4 kmh WNW 6.9 mph11.1 kmh 29.84 in1010.5 mb - 0.00 in0.0 mm 0.00 in0.0 mm
10:40 AM 75.0°F23.9°C 65.4°F18.6°C 72% 4.6 mph WNW7.4 kmh WNW 12.7 mph20.4 kmh 29.85 in1010.8 mb - 0.00 in0.0 mm 0.00 in0.0 mm
10:30 AM 74.2°F23.4°C 65.8°F18.8°C 75% 5.8 mph WNW9.3 kmh WNW 8.1 mph13.0 kmh 29.86 in1011.2 mb - 0.00 in0.0 mm 0.00 in0.0 mm
10:20 AM 74.3°F23.5°C 67.3°F19.6°C 79% 5.8 mph NW9.3 kmh NW 11.5 mph18.5 kmh 29.86 in1011.2 mb - 0.00 in0.0 mm 0.00 in0.0 mm
10:10 AM 73.4°F23.0°C 66.1°F18.9°C 78% 4.6 mph W7.4 kmh W 11.5 mph18.5 kmh 29.86 in1011.2 mb - 0.00 in0.0 mm 0.00 in0.0 mm
10:00 AM 73.3°F22.9°C 65.7°F18.7°C 77% 6.9 mph NW11.1 kmh NW 10.4 mph16.7 kmh 29.86 in1011.2 mb - 0.00 in0.0 mm 0.00 in0.0 mm
09:50 AM 73.5°F23.1°C 66.5°F19.2°C 79% 4.6 mph WNW7.4 kmh WNW 8.1 mph13.0 kmh 29.85 in1010.8 mb - 0.00 in0.0 mm 0.00 in0.0 mm
09:40 AM 72.2°F22.3°C 65.4°F18.6°C 79% 5.8 mph NW9.3 kmh NW 6.9 mph11.1 kmh 29.85 in1010.8 mb - 0.00 in0.0 mm 0.00 in0.0 mm
09:30 AM 72.1°F22.3°C 66.0°F18.9°C 81% 2.3 mph NW3.7 kmh NW 4.6 mph7.4 kmh 29.85 in1010.8 mb - 0.00 in0.0 mm 0.00 in0.0 mm
09:20 AM 71.5°F21.9°C 66.1°F18.9°C 83% 5.8 mph WNW9.3 kmh WNW 11.5 mph18.5 kmh 29.85 in1010.8 mb - 0.00 in0.0 mm 0.00 in0.0 mm
09:10 AM 70.9°F21.6°C 66.1°F18.9°C 85% 6.9 mph NW11.1 kmh NW 10.4 mph16.7 kmh 29.85 in1010.8 mb - 0.00 in0.0 mm 0.00 in0.0 mm
09:00 AM 70.9°F21.6°C 66.2°F19.0°C 85% 2.3 mph NW3.7 kmh NW 5.8 mph9.3 kmh 29.84 in1010.5 mb - 0.00 in0.0 mm 0.00 in0.0 mm
08:50 AM 70.5°F21.4°C 65.5°F18.6°C 84% 5.8 mph NW9.3 kmh NW 8.1 mph13.0 kmh 29.84 in1010.5 mb - 0.00 in0.0 mm 0.00 in0.0 mm
08:40 AM 70.1°F21.2°C 65.7°F18.7°C 86% 2.3 mph WNW3.7 kmh WNW 3.5 mph5.6 kmh 29.84 in1010.5 mb - 0.00 in0.0 mm 0.00 in0.0 mm
08:30 AM 69.5°F20.8°C 64.7°F18.2°C 85% 3.5 mph WNW5.6 kmh WNW 4.6 mph7.4 kmh 29.83 in1010.2 mb - 0.00 in0.0 mm 0.00 in0.0 mm
08:20 AM 69.2°F20.7°C 65.2°F18.4°C 87% 4.6 mph WNW7.4 kmh WNW 4.6 mph7.4 kmh 29.83 in1010.2 mb - 0.00 in0.0 mm 0.00 in0.0 mm
08:10 AM 68.6°F20.3°C 64.6°F18.1°C 87% 5.8 mph NW9.3 kmh NW 9.2 mph14.8 kmh 29.82 in1009.8 mb - 0.00 in0.0 mm 0.00 in0.0 mm
08:00 AM 68.3°F20.2°C 64.6°F18.1°C 88% 4.6 mph W7.4 kmh W 11.5 mph18.5 kmh 29.82 in1009.8 mb - 0.00 in0.0 mm 0.00 in0.0 mm
07:50 AM 67.7°F19.8°C 64.7°F18.2°C 90% 4.6 mph WNW7.4 kmh WNW 9.2 mph14.8 kmh 29.82 in1009.8 mb - 0.00 in0.0 mm 0.00 in0.0 mm
07:40 AM 67.2°F19.6°C 64.2°F17.9°C 90% 3.5 mph W5.6 kmh W 8.1 mph13.0 kmh 29.81 in1009.5 mb - 0.00 in0.0 mm 0.00 in0.0 mm
07:30 AM 66.9°F19.4°C 64.2°F17.9°C 91% 3.5 mph W5.6 kmh W 4.6 mph7.4 kmh 29.81 in1009.5 mb - 0.00 in0.0 mm 0.00 in0.0 mm
07:20 AM 66.3°F19.1°C 63.9°F17.7°C 92% 3.5 mph W5.6 kmh W 5.8 mph9.3 kmh 29.81 in1009.5 mb - 0.00 in0.0 mm 0.00 in0.0 mm
07:10 AM 65.9°F18.8°C 63.8°F17.7°C 93% 2.3 mph WNW3.7 kmh WNW 3.5 mph5.6 kmh 29.81 in1009.5 mb - 0.00 in0.0 mm 0.00 in0.0 mm
07:00 AM 65.3°F18.5°C 63.5°F17.5°C 94% 3.5 mph W5.6 kmh W 6.9 mph11.1 kmh 29.81 in1009.5 mb - 0.00 in0.0 mm 0.00 in0.0 mm
06:50 AM 64.7°F18.2°C 62.9°F17.2°C 94% 2.3 mph WSW3.7 kmh WSW 4.6 mph7.4 kmh 29.81 in1009.5 mb - 0.00 in0.0 mm 0.00 in0.0 mm
06:40 AM 64.6°F18.1°C 63.1°F17.3°C 95% 4.6 mph WSW7.4 kmh WSW 5.8 mph9.3 kmh 29.81 in1009.5 mb - 0.00 in0.0 mm 0.00 in0.0 mm
06:30 AM 64.2°F17.9°C 62.7°F17.1°C 95% 4.6 mph W7.4 kmh W 9.2 mph14.8 kmh 29.80 in1009.1 mb - 0.00 in0.0 mm 0.00 in0.0 mm
06:20 AM 63.8°F17.7°C 62.3°F16.8°C 95% 2.3 mph WSW3.7 kmh WSW 3.5 mph5.6 kmh 29.80 in1009.1 mb - 0.00 in0.0 mm 0.00 in0.0 mm
06:10 AM 63.8°F17.7°C 62.4°F16.9°C 95% 2.3 mph WSW3.7 kmh WSW 3.5 mph5.6 kmh 29.79 in1008.8 mb - 0.00 in0.0 mm 0.00 in0.0 mm
06:00 AM 64.1°F17.8°C 62.6°F17.0°C 95% 2.3 mph WSW3.7 kmh WSW 3.5 mph5.6 kmh 29.79 in1008.8 mb - 0.00 in0.0 mm 0.00 in0.0 mm
05:50 AM 64.2°F17.9°C 62.4°F16.9°C 94% 1.2 mph W1.9 kmh W 5.8 mph9.3 kmh 29.79 in1008.8 mb - 0.00 in0.0 mm 0.00 in0.0 mm
05:40 AM 64.7°F18.2°C 62.6°F17.0°C 93% 1.2 mph W1.9 kmh W 2.3 mph3.7 kmh 29.78 in1008.5 mb - 0.00 in0.0 mm 0.00 in0.0 mm
05:30 AM 65.3°F18.5°C 63.2°F17.3°C 93% 1.2 mph W1.9 kmh W 2.3 mph3.7 kmh 29.79 in1008.8 mb - 0.00 in0.0 mm 0.00 in0.0 mm
05:20 AM 65.5°F18.6°C 63.4°F17.4°C 93% 2.3 mph W3.7 kmh W 3.5 mph5.6 kmh 29.79 in1008.8 mb - 0.00 in0.0 mm 0.00 in0.0 mm
05:10 AM 65.7°F18.7°C 63.3°F17.4°C 92% 2.3 mph WSW3.7 kmh WSW 3.5 mph5.6 kmh 29.78 in1008.5 mb - 0.00 in0.0 mm 0.00 in0.0 mm
05:00 AM 66.0°F18.9°C 63.6°F17.6°C 92% 2.3 mph W3.7 kmh W 5.8 mph9.3 kmh 29.78 in1008.5 mb - 0.00 in0.0 mm 0.00 in0.0 mm
04:50 AM 66.4°F19.1°C 63.7°F17.6°C 91% 4.6 mph W7.4 kmh W 5.8 mph9.3 kmh 29.78 in1008.5 mb - 0.00 in0.0 mm 0.00 in0.0 mm
04:40 AM 66.6°F19.2°C 63.9°F17.7°C 91% 3.5 mph NW5.6 kmh NW 3.5 mph5.6 kmh 29.77 in1008.1 mb - 0.00 in0.0 mm 0.00 in0.0 mm
04:30 AM 66.8°F19.3°C 64.1°F17.8°C 91% 1.2 mph WNW1.9 kmh WNW 3.5 mph5.6 kmh 29.77 in1008.1 mb - 0.00 in0.0 mm 0.00 in0.0 mm
04:20 AM 66.8°F19.3°C 64.1°F17.8°C 91% 3.5 mph WNW5.6 kmh WNW 5.8 mph9.3 kmh 29.77 in1008.1 mb - 0.00 in0.0 mm 0.00 in0.0 mm
04:10 AM 67.2°F19.6°C 64.1°F17.8°C 90% 4.6 mph W7.4 kmh W 9.2 mph14.8 kmh 29.77 in1008.1 mb - 0.00 in0.0 mm 0.00 in0.0 mm
04:00 AM 67.4°F19.7°C 64.0°F17.8°C 89% 5.8 mph W9.3 kmh W 9.2 mph14.8 kmh 29.77 in1008.1 mb - 0.00 in0.0 mm 0.00 in0.0 mm
03:50 AM 67.6°F19.8°C 64.2°F17.9°C 89% 3.5 mph W5.6 kmh W 5.8 mph9.3 kmh 29.77 in1008.1 mb - 0.00 in0.0 mm 0.00 in0.0 mm
03:40 AM 67.6°F19.8°C 64.2°F17.9°C 89% 4.6 mph W7.4 kmh W 5.8 mph9.3 kmh 29.77 in1008.1 mb - 0.00 in0.0 mm 0.00 in0.0 mm
03:30 AM 67.8°F19.9°C 64.4°F18.0°C 89% 4.6 mph W7.4 kmh W 8.1 mph13.0 kmh 29.77 in1008.1 mb - 0.00 in0.0 mm 0.00 in0.0 mm
03:20 AM 67.7°F19.8°C 64.4°F18.0°C 89% 3.5 mph WNW5.6 kmh WNW 4.6 mph7.4 kmh 29.76 in1007.8 mb - 0.00 in0.0 mm 0.00 in0.0 mm
03:10 AM 67.7°F19.8°C 64.3°F17.9°C 89% 2.3 mph W3.7 kmh W 5.8 mph9.3 kmh 29.77 in1008.1 mb - 0.00 in0.0 mm 0.00 in0.0 mm
03:00 AM 67.7°F19.8°C 64.7°F18.2°C 90% 2.3 mph W3.7 kmh W 8.1 mph13.0 kmh 29.76 in1007.8 mb - 0.00 in0.0 mm 0.00 in0.0 mm
02:50 AM 67.7°F19.8°C 64.7°F18.2°C 90% 3.5 mph W5.6 kmh W 8.1 mph13.0 kmh 29.76 in1007.8 mb - 0.00 in0.0 mm 0.00 in0.0 mm
02:40 AM 67.7°F19.8°C 64.7°F18.2°C 90% 2.3 mph W3.7 kmh W 5.8 mph9.3 kmh 29.76 in1007.8 mb - 0.00 in0.0 mm 0.00 in0.0 mm
02:30 AM 67.4°F19.7°C 64.7°F18.2°C 91% 1.2 mph W1.9 kmh W 3.5 mph5.6 kmh 29.76 in1007.8 mb - 0.00 in0.0 mm 0.00 in0.0 mm
02:20 AM 67.2°F19.6°C 64.5°F18.1°C 91% 4.6 mph WSW7.4 kmh WSW 8.1 mph13.0 kmh 29.76 in1007.8 mb - 0.00 in0.0 mm 0.00 in0.0 mm
02:10 AM 67.1°F19.5°C 64.4°F18.0°C 91% 2.3 mph WSW3.7 kmh WSW 3.5 mph5.6 kmh 29.76 in1007.8 mb - 0.00 in0.0 mm 0.00 in0.0 mm
02:00 AM 67.7°F19.8°C 64.7°F18.2°C 90% 1.2 mph WSW1.9 kmh WSW 3.5 mph5.6 kmh 29.76 in1007.8 mb - 0.00 in0.0 mm 0.00 in0.0 mm
01:50 AM 67.8°F19.9°C 64.8°F18.2°C 90% 3.5 mph WSW5.6 kmh WSW 4.6 mph7.4 kmh 29.75 in1007.5 mb - 0.00 in0.0 mm 0.00 in0.0 mm
01:40 AM 68.2°F20.1°C 64.9°F18.3°C 89% 3.5 mph SW5.6 kmh SW 5.8 mph9.3 kmh 29.76 in1007.8 mb - 0.00 in0.0 mm 0.00 in0.0 mm
01:30 AM 68.6°F20.3°C 64.9°F18.3°C 88% 2.3 mph W3.7 kmh W 3.5 mph5.6 kmh 29.76 in1007.8 mb - 0.00 in0.0 mm 0.00 in0.0 mm
01:20 AM 69.0°F20.6°C 65.0°F18.3°C 87% 3.5 mph WSW5.6 kmh WSW 8.1 mph13.0 kmh 29.76 in1007.8 mb - 0.00 in0.0 mm 0.00 in0.0 mm
01:10 AM 69.3°F20.7°C 65.3°F18.5°C 87% 2.3 mph SW3.7 kmh SW 3.5 mph5.6 kmh 29.76 in1007.8 mb - 0.00 in0.0 mm 0.00 in0.0 mm
01:00 AM 69.9°F21.1°C 65.5°F18.6°C 86% 3.5 mph WSW5.6 kmh WSW 4.6 mph7.4 kmh 29.76 in1007.8 mb - 0.00 in0.0 mm 0.00 in0.0 mm
12:50 AM 70.1°F21.2°C 65.4°F18.6°C 85% 2.3 mph W3.7 kmh W 3.5 mph5.6 kmh 29.76 in1007.8 mb - 0.00 in0.0 mm 0.00 in0.0 mm
12:40 AM 70.6°F21.4°C 65.5°F18.6°C 84% 3.5 mph SW5.6 kmh SW 3.5 mph5.6 kmh 29.76 in1007.8 mb - 0.00 in0.0 mm 0.00 in0.0 mm
12:30 AM 71.4°F21.9°C 66.0°F18.9°C 83% 2.3 mph WSW3.7 kmh WSW 3.5 mph5.6 kmh 29.76 in1007.8 mb - 0.00 in0.0 mm 0.00 in0.0 mm
12:20 AM 71.7°F22.1°C 65.9°F18.8°C 82% 2.3 mph W3.7 kmh W 4.6 mph7.4 kmh 29.76 in1007.8 mb - 0.00 in0.0 mm 0.00 in0.0 mm
12:10 AM 71.9°F22.2°C 65.8°F18.8°C 81% 6.9 mph W11.1 kmh W 8.1 mph13.0 kmh 29.76 in1007.8 mb - 0.00 in0.0 mm 0.00 in0.0 mm
12:00 AM 72.1°F22.3°C 65.9°F18.8°C 81% 2.3 mph W3.7 kmh W 3.5 mph5.6 kmh 29.76 in1007.8 mb - 0.00 in0.0 mm 0.00 in0.0 mm